Dati Storici

Data ora Umidita' aria (%) Temperatura aria (°C) Rad globale (W/m²) Gonioanemometro (°) Tacoanemometro (m/s) Pioggia (mm)
17-06-2020 03:30 97.6 % 18.077 -67.902 1.38 0 0
17-06-2020 03:20 97.6 % 18.07 -69.605 2.37 0 0
17-06-2020 03:10 97.6 % 18.219 -72.293 0.727 0 0
17-06-2020 03:00 97.6 % 18.164 -81.164 1.263 0 0
17-06-2020 02:50 97.6 % 18.29 -71.765 0.914 0 0
17-06-2020 02:40 97.6 % 18.328 -84.975 2.578 0 0
17-06-2020 02:30 97.1 % 18.256 -86.152 0.001 0 0
17-06-2020 02:20 93.9 % 18.53 -73.762 1.522 0 0
17-06-2020 02:10 93.2 % 18.524 -86.049 0.764 0 0
17-06-2020 02:00 93.8 % 18.522 -83.025 0.567 0 0
17-06-2020 01:50 95.1 % 18.455 -79.693 1.956 0 0
17-06-2020 01:40 95.6 % 18.443 -79.736 3.134 0 0
17-06-2020 01:30 94.5 % 18.593 -83.174 1.35 0 0
17-06-2020 01:20 94.5 % 18.791 -83.803 3.94 0 0
17-06-2020 01:10 95.2 % 18.878 -85.663 2.83 0 0
17-06-2020 01:00 95.9 % 19.039 -84.142 1.839 0 0
17-06-2020 00:50 96.1 % 19.07 -82.618 1.59 0 0
17-06-2020 00:40 92.1 % 19.288 -83.351 2.57 0 0
17-06-2020 00:30 88.4 % 19.524 -76.109 -0.008 0 0
17-06-2020 00:20 86.4 % 19.663 -73.886 1.637 0 0

I dati sono presentati in modo automatico a scopo informativo. In seguito a verifica i dati possono subire modifiche o essere invalidati e non riportati negli archivi definitivi.